createdAt,value
2023-05-14T00:01:10.652Z,101883.35
2023-05-14T00:03:41.246Z,101887.52
2023-05-14T00:06:10.970Z,101881.88
2023-05-14T00:08:38.861Z,101873.44
2023-05-14T00:11:09.134Z,101879.67
2023-05-14T00:13:37.174Z,101874.58
2023-05-14T00:16:05.527Z,101872.00
2023-05-14T00:18:33.558Z,101870.61
2023-05-14T00:21:01.647Z,101871.44
2023-05-14T00:23:29.586Z,101867.20
2023-05-14T00:25:57.538Z,101871.14
2023-05-14T00:28:25.539Z,101874.27
2023-05-14T00:30:53.461Z,101872.52
2023-05-14T00:33:21.469Z,101877.08
2023-05-14T00:35:49.349Z,101876.98
2023-05-14T00:38:19.498Z,101871.90
2023-05-14T00:40:51.485Z,101873.15
2023-05-14T00:43:20.848Z,101868.99
2023-05-14T00:45:53.121Z,101869.45
2023-05-14T00:48:21.563Z,101869.95
2023-05-14T00:50:49.765Z,101867.10
2023-05-14T00:53:18.973Z,101869.57
2023-05-14T00:55:47.085Z,101868.16
2023-05-14T00:58:15.162Z,101868.96
2023-05-14T01:00:43.113Z,101869.17
2023-05-14T01:03:11.242Z,101869.16
2023-05-14T01:06:12.504Z,101865.23
2023-05-14T01:08:58.625Z,101863.33
2023-05-14T01:11:31.065Z,101867.99
2023-05-14T01:14:08.294Z,101867.08
2023-05-14T01:16:36.940Z,101866.13
2023-05-14T01:19:06.333Z,101868.56
2023-05-14T01:21:38.920Z,101867.63
2023-05-14T01:24:07.743Z,101869.15
2023-05-14T01:26:36.052Z,101878.44
2023-05-14T01:29:23.145Z,101876.08
2023-05-14T01:31:51.581Z,101873.70
2023-05-14T01:34:21.566Z,101871.04
2023-05-14T01:36:50.075Z,101867.23
2023-05-14T01:39:18.086Z,101863.94
2023-05-14T01:41:47.113Z,101859.72
2023-05-14T01:44:15.077Z,101862.52
2023-05-14T01:46:43.027Z,101863.31
2023-05-14T01:49:10.984Z,101861.31
2023-05-14T01:51:39.038Z,101863.98
2023-05-14T01:54:06.952Z,101862.86
2023-05-14T01:56:34.842Z,101856.47
2023-05-14T01:59:02.808Z,101856.85
2023-05-14T02:01:30.899Z,101851.82
2023-05-14T02:03:58.955Z,101848.92
2023-05-14T02:06:27.213Z,101846.04
2023-05-14T02:08:57.277Z,101846.59
2023-05-14T02:11:25.271Z,101850.50
2023-05-14T02:13:53.155Z,101848.13
2023-05-14T02:16:21.087Z,101845.98
2023-05-14T02:18:49.097Z,101848.25
2023-05-14T02:21:17.186Z,101847.38
2023-05-14T02:23:45.108Z,101844.73
2023-05-14T02:26:13.188Z,101847.03
2023-05-14T02:28:41.100Z,101840.66
2023-05-14T02:31:09.202Z,101844.64
2023-05-14T02:33:37.181Z,101846.13
2023-05-14T02:36:05.982Z,101842.58
2023-05-14T02:38:33.950Z,101839.20
2023-05-14T02:41:01.873Z,101838.73
2023-05-14T02:43:29.944Z,101839.48
2023-05-14T02:45:57.990Z,101838.89
2023-05-14T02:48:26.765Z,101840.33
2023-05-14T02:50:54.710Z,101833.26
2023-05-14T02:53:22.688Z,101831.58
2023-05-14T02:55:50.665Z,101833.85
2023-05-14T02:58:19.338Z,101834.86
2023-05-14T03:00:53.963Z,101833.56
2023-05-14T03:03:22.427Z,101834.56
2023-05-14T03:05:51.264Z,101839.58
2023-05-14T03:08:19.138Z,101841.98
2023-05-14T03:10:47.101Z,101840.21
2023-05-14T03:13:20.175Z,101841.88
2023-05-14T03:15:48.833Z,101842.95
2023-05-14T03:18:16.872Z,101843.10
2023-05-14T03:20:44.870Z,101841.72
2023-05-14T03:23:13.205Z,101833.80
2023-05-14T03:25:41.344Z,101837.30
2023-05-14T03:28:09.900Z,101839.16
2023-05-14T03:30:37.884Z,101836.04
2023-05-14T03:33:06.003Z,101831.52
2023-05-14T03:35:34.039Z,101826.58
2023-05-14T03:38:02.053Z,101830.63
2023-05-14T03:40:30.199Z,101830.79
2023-05-14T03:42:58.153Z,101828.94
2023-05-14T03:45:27.093Z,101827.00
2023-05-14T03:47:55.141Z,101821.59
2023-05-14T03:50:25.718Z,101819.49
2023-05-14T03:52:55.122Z,101818.05
2023-05-14T03:55:23.283Z,101820.72
2023-05-14T03:57:51.279Z,101818.81
2023-05-14T04:00:19.643Z,101817.27
2023-05-14T04:02:47.616Z,101814.39
2023-05-14T04:05:16.864Z,101812.27
2023-05-14T04:07:45.933Z,101811.25
2023-05-14T04:10:13.998Z,101811.86
2023-05-14T04:12:41.956Z,101811.94
2023-05-14T04:15:10.976Z,101811.41
2023-05-14T04:17:39.280Z,101811.85
2023-05-14T04:20:08.065Z,101810.88
2023-05-14T04:23:09.043Z,101807.27
2023-05-14T04:25:36.977Z,101807.36
2023-05-14T04:28:05.162Z,101811.59
2023-05-14T04:30:33.064Z,101808.90
2023-05-14T04:33:01.028Z,101804.84
2023-05-14T04:35:29.382Z,101803.66
2023-05-14T04:37:57.312Z,101806.11
2023-05-14T04:40:25.746Z,101809.48
2023-05-14T04:42:53.891Z,101811.42
2023-05-14T04:45:21.906Z,101805.34
2023-05-14T04:47:49.851Z,101800.25
2023-05-14T04:50:17.907Z,101800.33
2023-05-14T04:52:45.850Z,101797.05
2023-05-14T04:55:13.743Z,101797.95
2023-05-14T04:57:41.685Z,101791.34
2023-05-14T05:00:10.316Z,101794.18
2023-05-14T05:02:38.438Z,101788.21
2023-05-14T05:05:06.549Z,101787.04
2023-05-14T05:07:34.514Z,101781.90
2023-05-14T05:10:02.842Z,101779.34
2023-05-14T05:12:30.967Z,101781.61
2023-05-14T05:14:58.939Z,101779.27
2023-05-14T05:17:27.035Z,101777.52
2023-05-14T05:19:55.316Z,101778.41
2023-05-14T05:22:23.818Z,101771.63
2023-05-14T05:24:51.788Z,101768.81
2023-05-14T05:27:21.204Z,101768.45
2023-05-14T05:29:49.213Z,101767.27
2023-05-14T05:32:17.169Z,101767.52
2023-05-14T05:34:45.480Z,101764.23
2023-05-14T05:37:14.950Z,101764.19
2023-05-14T05:39:42.951Z,101761.98
2023-05-14T05:42:10.985Z,101758.66
2023-05-14T05:44:39.020Z,101752.98
2023-05-14T05:47:07.117Z,101753.70
2023-05-14T05:49:36.908Z,101760.14
2023-05-14T05:52:05.196Z,101757.54
2023-05-14T05:54:33.177Z,101760.16
2023-05-14T05:57:01.242Z,101756.69
2023-05-14T05:59:29.093Z,101757.80
2023-05-14T06:01:57.041Z,101757.88
2023-05-14T06:04:25.117Z,101752.13
2023-05-14T06:06:53.871Z,101750.73
2023-05-14T06:09:21.785Z,101748.63
2023-05-14T06:11:49.736Z,101742.56
2023-05-14T06:14:17.650Z,101743.67
2023-05-14T06:16:45.939Z,101741.38
2023-05-14T06:19:14.044Z,101737.31
2023-05-14T06:21:42.293Z,101735.18
2023-05-14T06:24:10.769Z,101740.10
2023-05-14T06:26:38.967Z,101738.70
2023-05-14T06:29:06.862Z,101738.60
2023-05-14T06:31:34.812Z,101740.85
2023-05-14T06:34:02.783Z,101740.80
2023-05-14T06:36:31.101Z,101740.71
2023-05-14T06:38:59.095Z,101739.28
2023-05-14T06:41:27.029Z,101738.79
2023-05-14T06:43:55.468Z,101739.11
2023-05-14T06:46:23.429Z,101737.55
2023-05-14T06:48:53.325Z,101737.74
2023-05-14T06:51:21.749Z,101739.33
2023-05-14T06:53:49.840Z,101742.67
2023-05-14T06:56:17.845Z,101740.94
2023-05-14T06:58:45.742Z,101740.80
2023-05-14T07:01:13.726Z,101741.04
2023-05-14T07:03:41.679Z,101738.49
2023-05-14T07:06:10.359Z,101736.83
2023-05-14T07:08:40.336Z,101732.13
2023-05-14T07:11:08.265Z,101729.92
2023-05-14T07:13:36.376Z,101728.73
2023-05-14T07:16:04.686Z,101724.45
2023-05-14T07:18:32.888Z,101727.88
2023-05-14T07:21:00.976Z,101727.93
2023-05-14T07:23:28.989Z,101722.35
2023-05-14T07:25:56.942Z,101721.08
2023-05-14T07:28:24.821Z,101716.59
2023-05-14T07:30:52.784Z,101713.19
2023-05-14T07:33:21.120Z,101713.60
2023-05-14T07:35:49.093Z,101710.73
2023-05-14T07:38:17.235Z,101704.66
2023-05-14T07:40:45.251Z,101699.39
2023-05-14T07:43:14.125Z,101696.45
2023-05-14T07:45:42.111Z,101686.96
2023-05-14T07:48:10.198Z,101687.02
2023-05-14T07:50:38.310Z,101689.16
2023-05-14T07:53:06.431Z,101680.59
2023-05-14T07:55:34.420Z,101676.13
2023-05-14T07:58:02.510Z,101673.30
2023-05-14T08:00:31.006Z,101671.94
2023-05-14T08:02:59.271Z,101666.78
2023-05-14T08:05:27.504Z,101663.89
2023-05-14T08:07:55.505Z,101660.22
2023-05-14T08:10:23.871Z,101656.13
2023-05-14T08:12:52.084Z,101657.63
2023-05-14T08:15:20.426Z,101654.61
2023-05-14T08:17:48.716Z,101648.18
2023-05-14T08:20:16.766Z,101648.48
2023-05-14T08:25:26.747Z,101648.48
2023-05-14T08:27:54.842Z,101641.73
2023-05-14T08:30:23.461Z,101638.94
2023-05-14T08:32:51.867Z,101638.04
2023-05-14T08:35:20.119Z,101633.11
2023-05-14T08:37:48.130Z,101624.52
2023-05-14T08:40:16.549Z,101625.24
2023-05-14T08:42:45.294Z,101618.23
2023-05-14T08:45:16.349Z,101621.71
2023-05-14T08:47:52.018Z,101618.63
2023-05-14T08:50:22.737Z,101612.77
2023-05-14T08:52:51.935Z,101612.34
2023-05-14T08:55:19.832Z,101612.92
2023-05-14T08:57:47.880Z,101607.21
2023-05-14T09:00:16.155Z,101606.33
2023-05-14T09:02:45.011Z,101605.42
2023-05-14T09:05:13.503Z,101601.70
2023-05-14T09:07:41.412Z,101591.91
2023-05-14T09:10:09.499Z,101591.13
2023-05-14T09:12:37.406Z,101585.98
2023-05-14T09:15:06.844Z,101581.73
2023-05-14T09:17:34.921Z,101581.43
2023-05-14T09:20:04.331Z,101582.80
2023-05-14T09:22:32.459Z,101574.50
2023-05-14T09:25:11.196Z,101575.14
2023-05-14T09:27:39.198Z,101575.17
2023-05-14T09:30:09.366Z,101570.70
2023-05-14T09:32:44.378Z,101568.80
2023-05-14T09:35:17.903Z,101564.23
2023-05-14T09:37:47.480Z,101563.44
2023-05-14T09:40:16.303Z,101562.63
2023-05-14T09:42:44.472Z,101565.55
2023-05-14T09:45:12.432Z,101562.27
2023-05-14T09:47:40.508Z,101558.13
2023-05-14T09:50:08.944Z,101556.28
2023-05-14T09:52:37.380Z,101548.91
2023-05-14T09:55:05.785Z,101550.86
2023-05-14T09:57:34.666Z,101550.89
2023-05-14T10:00:03.018Z,101553.15
2023-05-14T10:02:38.092Z,101548.52
2023-05-14T10:05:06.923Z,101547.09
2023-05-14T10:07:43.182Z,101539.99
2023-05-14T10:10:14.031Z,101536.17
2023-05-14T10:12:42.268Z,101525.20
2023-05-14T10:15:20.043Z,101521.67
2023-05-14T10:17:50.479Z,101524.23
2023-05-14T10:20:18.457Z,101523.70
2023-05-14T10:22:46.422Z,101524.16
2023-05-14T10:25:14.389Z,101521.27
2023-05-14T10:27:42.621Z,101514.04
2023-05-14T10:30:14.801Z,101512.46
2023-05-14T10:32:44.265Z,101503.81
2023-05-14T10:35:17.143Z,101501.10
2023-05-14T10:37:46.423Z,101502.23
2023-05-14T10:40:14.710Z,101492.13
2023-05-14T10:42:43.803Z,101487.54
2023-05-14T10:45:15.494Z,101489.16
2023-05-14T10:47:46.097Z,101489.46
2023-05-14T10:50:15.438Z,101485.19
2023-05-14T10:52:44.195Z,101479.70
2023-05-14T10:55:16.280Z,101474.90
2023-05-14T10:57:45.458Z,101470.73
2023-05-14T11:00:14.770Z,101463.41
2023-05-14T11:02:44.236Z,101465.25
2023-05-14T11:05:17.555Z,101469.27
2023-05-14T11:07:47.865Z,101473.73
2023-05-14T11:10:19.860Z,101474.51
2023-05-14T11:12:48.725Z,101466.66
2023-05-14T11:15:18.389Z,101469.10
2023-05-14T11:17:47.063Z,101470.45
2023-05-14T11:20:15.113Z,101468.67
2023-05-14T11:22:43.364Z,101471.45
2023-05-14T11:25:14.747Z,101465.80
2023-05-14T11:27:43.811Z,101458.70
2023-05-14T11:30:19.234Z,101452.20
2023-05-14T11:32:48.250Z,101449.17
2023-05-14T11:35:17.202Z,101443.46
2023-05-14T11:37:54.248Z,101441.82
2023-05-14T11:40:22.889Z,101443.19
2023-05-14T11:42:52.373Z,101437.09
2023-05-14T11:45:27.291Z,101438.98
2023-05-14T11:47:55.431Z,101433.63
2023-05-14T11:50:23.782Z,101431.52
2023-05-14T11:52:56.620Z,101429.69
2023-05-14T11:55:24.520Z,101432.16
2023-05-14T11:57:52.650Z,101422.92
2023-05-14T12:00:22.258Z,101421.49
2023-05-14T12:02:50.508Z,101413.20
2023-05-14T12:05:18.922Z,101401.44
2023-05-14T12:07:47.540Z,101402.48
2023-05-14T12:10:15.556Z,101392.64
2023-05-14T12:12:45.935Z,101393.39
2023-05-14T12:15:14.611Z,101388.35
2023-05-14T12:17:42.674Z,101392.02
2023-05-14T12:20:11.359Z,101394.45
2023-05-14T12:22:41.598Z,101391.61
2023-05-14T12:25:16.027Z,101393.33
2023-05-14T12:27:53.477Z,101391.55
2023-05-14T12:30:22.209Z,101388.09
2023-05-14T12:32:52.745Z,101381.27
2023-05-14T12:35:22.586Z,101374.59
2023-05-14T12:37:53.234Z,101374.25
2023-05-14T12:40:21.214Z,101377.02
2023-05-14T12:42:49.153Z,101375.14
2023-05-14T12:45:17.176Z,101369.38
2023-05-14T12:47:46.297Z,101365.95
2023-05-14T12:50:14.232Z,101363.27
2023-05-14T12:52:42.190Z,101362.59
2023-05-14T12:55:10.264Z,101360.66
2023-05-14T12:57:39.292Z,101358.37
2023-05-14T13:00:13.881Z,101351.14
2023-05-14T13:02:43.834Z,101355.40
2023-05-14T13:05:12.432Z,101353.23
2023-05-14T13:07:40.760Z,101347.98
2023-05-14T13:10:12.032Z,101345.61
2023-05-14T13:12:42.258Z,101343.83
2023-05-14T13:15:12.034Z,101343.98
2023-05-14T13:17:41.488Z,101342.64
2023-05-14T13:20:10.552Z,101339.14
2023-05-14T13:22:41.750Z,101337.27
2023-05-14T13:25:10.175Z,101333.04
2023-05-14T13:27:38.116Z,101326.73
2023-05-14T13:30:07.009Z,101324.17
2023-05-14T13:32:34.963Z,101315.02
2023-05-14T13:35:02.978Z,101318.15
2023-05-14T13:37:30.937Z,101316.00
2023-05-14T13:39:58.846Z,101316.30
2023-05-14T13:42:27.204Z,101311.60
2023-05-14T13:44:56.429Z,101309.69
2023-05-14T13:47:24.620Z,101303.36
2023-05-14T13:49:53.494Z,101303.31
2023-05-14T13:52:21.939Z,101302.52
2023-05-14T13:54:49.953Z,101300.99
2023-05-14T13:57:17.918Z,101294.86
2023-05-14T13:59:47.384Z,101294.00
2023-05-14T14:02:15.451Z,101295.34
2023-05-14T14:04:43.553Z,101292.21
2023-05-14T14:07:11.484Z,101292.13
2023-05-14T14:09:40.888Z,101287.58
2023-05-14T14:12:09.365Z,101286.26
2023-05-14T14:14:37.248Z,101282.46
2023-05-14T14:17:05.397Z,101278.54
2023-05-14T14:19:33.608Z,101277.19
2023-05-14T14:22:01.550Z,101271.46
2023-05-14T14:24:29.687Z,101271.39
2023-05-14T14:26:57.635Z,101266.64
2023-05-14T14:29:25.933Z,101267.71
2023-05-14T14:31:53.888Z,101265.40
2023-05-14T14:34:21.846Z,101258.19
2023-05-14T14:36:49.835Z,101256.45
2023-05-14T14:39:17.788Z,101257.21
2023-05-14T14:41:45.877Z,101255.06
2023-05-14T14:44:13.928Z,101253.25
2023-05-14T14:46:43.066Z,101250.50
2023-05-14T14:49:10.945Z,101238.27
2023-05-14T14:51:38.828Z,101234.80
2023-05-14T14:54:06.770Z,101233.57
2023-05-14T14:56:34.990Z,101230.45
2023-05-14T14:59:03.919Z,101229.72
2023-05-14T15:01:32.078Z,101225.45
2023-05-14T15:04:00.031Z,101231.28
2023-05-14T15:06:28.053Z,101231.46
2023-05-14T15:08:55.985Z,101226.33
2023-05-14T15:11:24.168Z,101229.24
2023-05-14T15:13:52.183Z,101236.17
2023-05-14T15:16:20.279Z,101233.20
2023-05-14T15:18:48.248Z,101227.03
2023-05-14T15:21:16.612Z,101226.52
2023-05-14T15:23:44.666Z,101224.02
2023-05-14T15:26:12.934Z,101216.60
2023-05-14T15:28:41.082Z,101216.67
2023-05-14T15:31:10.268Z,101213.94
2023-05-14T15:33:38.538Z,101214.91
2023-05-14T15:36:06.925Z,101211.10
2023-05-14T15:38:35.002Z,101209.95
2023-05-14T15:41:03.363Z,101209.60
2023-05-14T15:43:34.387Z,101209.13
2023-05-14T15:46:02.526Z,101208.88
2023-05-14T15:48:30.549Z,101206.38
2023-05-14T15:50:59.433Z,101203.20
2023-05-14T15:53:27.393Z,101196.61
2023-05-14T15:55:55.357Z,101192.23
2023-05-14T15:58:23.652Z,101189.11
2023-05-14T16:00:52.199Z,101183.16
2023-05-14T16:03:20.294Z,101182.13
2023-05-14T16:05:48.684Z,101180.77
2023-05-14T16:08:16.620Z,101177.90
2023-05-14T16:10:44.568Z,101176.46
2023-05-14T16:13:13.037Z,101178.52
2023-05-14T16:15:41.040Z,101178.08
2023-05-14T16:18:09.185Z,101172.57
2023-05-14T16:20:37.159Z,101170.73
2023-05-14T16:23:05.380Z,101170.11
2023-05-14T16:25:33.473Z,101171.66
2023-05-14T16:28:01.529Z,101167.55
2023-05-14T16:30:29.816Z,101167.66
2023-05-14T16:32:57.881Z,101163.42
2023-05-14T16:35:26.064Z,101165.41
2023-05-14T16:37:54.529Z,101161.27
2023-05-14T16:40:23.942Z,101160.63
2023-05-14T16:42:52.398Z,101156.57
2023-05-14T16:45:20.402Z,101155.63
2023-05-14T16:47:48.378Z,101150.14
2023-05-14T16:50:16.627Z,101149.41
2023-05-14T16:52:44.592Z,101150.23
2023-05-14T16:55:12.845Z,101148.89
2023-05-14T16:57:40.802Z,101155.52
2023-05-14T17:00:09.890Z,101150.19
2023-05-14T17:02:38.180Z,101151.05
2023-05-14T17:05:08.671Z,101150.77
2023-05-14T17:07:38.735Z,101152.03
2023-05-14T17:10:07.410Z,101146.20
2023-05-14T17:12:35.423Z,101144.64
2023-05-14T17:15:05.666Z,101144.88
2023-05-14T17:17:34.294Z,101141.00
2023-05-14T17:20:02.530Z,101141.85
2023-05-14T17:22:30.767Z,101138.02
2023-05-14T17:24:58.801Z,101141.05
2023-05-14T17:27:26.758Z,101143.77
2023-05-14T17:29:54.868Z,101139.36
2023-05-14T17:32:22.996Z,101138.79
2023-05-14T17:34:51.078Z,101134.50
2023-05-14T17:37:19.213Z,101135.29
2023-05-14T17:39:47.288Z,101137.45
2023-05-14T17:42:15.381Z,101141.80
2023-05-14T17:44:43.947Z,101146.74
2023-05-14T17:47:11.890Z,101144.36
2023-05-14T17:49:39.797Z,101143.83
2023-05-14T17:52:07.984Z,101146.94
2023-05-14T17:54:36.116Z,101147.80
2023-05-14T17:57:04.305Z,101147.73
2023-05-14T17:59:32.259Z,101150.65
2023-05-14T18:02:00.355Z,101146.77
2023-05-14T18:04:28.337Z,101153.56
2023-05-14T18:06:56.606Z,101154.68
2023-05-14T18:09:24.534Z,101150.98
2023-05-14T18:11:53.754Z,101149.15
2023-05-14T18:14:22.657Z,101143.42
2023-05-14T18:16:50.589Z,101149.49
2023-05-14T18:19:18.512Z,101146.36
2023-05-14T18:21:48.246Z,101142.84
2023-05-14T18:24:16.328Z,101141.57
2023-05-14T18:26:44.464Z,101141.61
2023-05-14T18:29:12.751Z,101145.64
2023-05-14T18:31:40.757Z,101144.61
2023-05-14T18:34:08.801Z,101144.86
2023-05-14T18:36:36.978Z,101143.20
2023-05-14T18:39:04.911Z,101143.11
2023-05-14T18:41:33.093Z,101143.08
2023-05-14T18:44:02.346Z,101147.48
2023-05-14T18:46:30.510Z,101147.48
2023-05-14T18:48:58.670Z,101144.88
2023-05-14T18:51:26.657Z,101146.86
2023-05-14T18:53:54.868Z,101149.46
2023-05-14T18:56:22.820Z,101150.74
2023-05-14T18:58:50.831Z,101151.05
2023-05-14T19:01:18.950Z,101147.21
2023-05-14T19:03:47.050Z,101155.97
2023-05-14T19:06:15.370Z,101155.65
2023-05-14T19:08:43.415Z,101151.30
2023-05-14T19:11:11.549Z,101157.23
2023-05-14T19:13:39.862Z,101155.84
2023-05-14T19:16:07.815Z,101155.02
2023-05-14T19:18:35.866Z,101152.96
2023-05-14T19:21:04.130Z,101156.33
2023-05-14T19:23:32.909Z,101159.33
2023-05-14T19:26:01.290Z,101156.18
2023-05-14T19:28:29.911Z,101158.45
2023-05-14T19:30:57.926Z,101158.08
2023-05-14T19:33:29.094Z,101158.52
2023-05-14T19:35:57.542Z,101159.88
2023-05-14T19:38:25.613Z,101156.83
2023-05-14T19:40:56.888Z,101160.55
2023-05-14T19:43:26.260Z,101159.50
2023-05-14T19:45:54.277Z,101161.61
2023-05-14T19:48:22.339Z,101154.86
2023-05-14T19:50:50.396Z,101148.73
2023-05-14T19:53:18.354Z,101145.79
2023-05-14T19:55:46.407Z,101144.61
2023-05-14T19:58:14.367Z,101141.35
2023-05-14T20:00:42.945Z,101143.99
2023-05-14T20:03:11.064Z,101143.52
2023-05-14T20:05:39.524Z,101140.20
2023-05-14T20:08:08.319Z,101139.10
2023-05-14T20:10:36.664Z,101135.02
2023-05-14T20:13:05.069Z,101132.88
2023-05-14T20:15:33.034Z,101128.50
2023-05-14T20:18:01.484Z,101126.17
2023-05-14T20:20:32.935Z,101125.81
2023-05-14T20:23:01.834Z,101122.97
2023-05-14T20:25:30.114Z,101121.09
2023-05-14T20:28:00.425Z,101117.77
2023-05-14T20:30:28.495Z,101114.09
2023-05-14T20:32:56.722Z,101108.05
2023-05-14T20:35:24.892Z,101105.90
2023-05-14T20:37:53.914Z,101103.36
2023-05-14T20:40:22.296Z,101102.17
2023-05-14T20:42:50.960Z,101101.73
2023-05-14T20:45:19.132Z,101102.54
2023-05-14T20:47:47.349Z,101104.20
2023-05-14T20:50:15.846Z,101101.48
2023-05-14T20:52:44.680Z,101102.96
2023-05-14T20:55:13.568Z,101102.48
2023-05-14T20:57:41.728Z,101099.59
2023-05-14T21:00:12.574Z,101099.84
2023-05-14T21:02:40.855Z,101095.34
2023-05-14T21:05:09.449Z,101092.19
2023-05-14T21:07:37.610Z,101087.36
2023-05-14T21:10:07.041Z,101084.23
2023-05-14T21:12:34.904Z,101078.77
2023-05-14T21:15:02.917Z,101081.85
2023-05-14T21:17:30.787Z,101077.85
2023-05-14T21:19:58.695Z,101075.39
2023-05-14T21:22:27.137Z,101072.25
2023-05-14T21:24:55.655Z,101073.52
2023-05-14T21:27:23.578Z,101073.38
2023-05-14T21:29:51.478Z,101074.05
2023-05-14T21:32:20.397Z,101070.80
2023-05-14T21:34:48.273Z,101074.05
2023-05-14T21:37:16.209Z,101072.22
2023-05-14T21:39:44.152Z,101071.39
2023-05-14T21:42:12.100Z,101074.84
2023-05-14T21:44:40.154Z,101068.63
2023-05-14T21:47:08.055Z,101069.39
2023-05-14T21:49:36.043Z,101066.69
2023-05-14T21:52:05.304Z,101066.44
2023-05-14T21:54:33.387Z,101063.60
2023-05-14T21:57:01.854Z,101066.24
2023-05-14T21:59:29.977Z,101065.59
2023-05-14T22:02:06.966Z,101060.09
2023-05-14T22:04:36.360Z,101053.95
2023-05-14T22:07:04.612Z,101053.61
2023-05-14T22:09:32.723Z,101051.91
2023-05-14T22:12:00.733Z,101046.64
2023-05-14T22:14:28.929Z,101045.81
2023-05-14T22:16:57.105Z,101041.45
2023-05-14T22:19:26.877Z,101040.54
2023-05-14T22:21:54.904Z,101035.48
2023-05-14T22:24:22.811Z,101033.71
2023-05-14T22:26:50.790Z,101028.67
2023-05-14T22:29:18.736Z,101023.08
2023-05-14T22:31:46.724Z,101023.16
2023-05-14T22:34:14.668Z,101018.60
2023-05-14T22:36:42.603Z,101015.20
2023-05-14T22:39:12.692Z,101011.45
2023-05-14T22:41:41.424Z,101009.69
2023-05-14T22:44:09.410Z,101007.04
2023-05-14T22:46:37.388Z,101009.67
2023-05-14T22:49:05.301Z,101003.58
2023-05-14T22:51:33.187Z,101000.13
2023-05-14T22:54:01.258Z,100997.63
2023-05-14T22:56:29.223Z,100995.56
2023-05-14T22:59:00.389Z,100988.45
2023-05-14T23:01:30.448Z,100984.34
2023-05-14T23:03:58.547Z,100983.83
2023-05-14T23:06:26.647Z,100978.42
2023-05-14T23:08:54.583Z,100972.80
2023-05-14T23:11:22.646Z,100970.20
2023-05-14T23:13:50.733Z,100968.50
2023-05-14T23:16:20.661Z,100969.48
2023-05-14T23:18:48.723Z,100960.72
2023-05-14T23:21:16.829Z,100956.68
2023-05-14T23:23:45.574Z,100952.05
2023-05-14T23:26:13.611Z,100947.98
2023-05-14T23:28:41.612Z,100945.26
2023-05-14T23:31:09.530Z,100943.42
2023-05-14T23:33:39.805Z,100943.87
2023-05-14T23:36:08.309Z,100939.95
2023-05-14T23:38:36.374Z,100936.60
2023-05-14T23:41:04.700Z,100932.40
2023-05-14T23:43:33.934Z,100929.33
2023-05-14T23:46:02.015Z,100923.83
2023-05-14T23:48:30.103Z,100924.44
2023-05-14T23:50:57.970Z,100918.27
2023-05-14T23:53:25.974Z,100915.23
2023-05-14T23:55:53.979Z,100910.27
2023-05-14T23:58:21.924Z,100904.89
